Terminal Aerodrome Forecast
Issued by NWS Buffalo, NY

Home | Current Version | Previous Version | Text Only | Print | Product List | Glossary On
Versions: 1 2 3 4 5 6 7 8 9 10 11 12 13 14 15 16 17 18 19 20 21 22 23 24 25 26 27 28 29
684
FTUS41 KBUF 070903 AAA
TAFBUF
TAF AMD
KBUF 070903Z 0709/0806 22009KT 5SM -DZ OVC015
     FM071100 25013G20KT P6SM OVC050
     FM071700 25016G23KT P6SM OVC020
     FM080100 23013G19KT P6SM VCSH OVC020
     FM080300 24012KT 2SM -SN OVC020=

USA.gov is the U.S. government's official web portal to all federal, state and local government web resources and services.